Time;durP1;ratioP1;P1;durP2;ratioP2;P2;SDS_P1;SDS_P2;PMS_P1;PMS_P2;Temp;Humidity;BMP_temperature;BMP_pressure;BME280_temperature;BME280_humidity;BME280_pressure;Samples;Min_cycle;Max_cycle;Signal;HPM_P1;HPM_P2
2023/05/28 00:00:26;;;;;;;7.50;6.80;;;21.50;99.90;;;;;;5090896;28;20487;-62
2023/05/28 00:02:52;;;;;;;8.15;7.25;;;21.50;99.90;;;;;;5090856;28;20028;-62
2023/05/28 00:05:17;;;;;;;7.97;7.03;;;21.50;99.90;;;;;;5090923;28;20020;-62
2023/05/28 00:07:43;;;;;;;8.02;7.03;;;21.40;99.90;;;;;;5090862;28;20020;-62
2023/05/28 00:10:10;;;;;;;8.40;6.85;;;21.50;99.90;;;;;;5091076;28;20036;-62
2023/05/28 00:12:36;;;;;;;8.00;6.72;;;21.40;99.90;;;;;;5090941;28;20032;-62
2023/05/28 00:15:02;;;;;;;8.57;6.80;;;21.40;99.90;;;;;;5090691;28;20036;-62
2023/05/28 00:17:28;;;;;;;7.78;6.85;;;21.40;99.90;;;;;;5091156;28;20020;-62
2023/05/28 00:19:53;;;;;;;8.57;6.93;;;21.30;99.90;;;;;;5094156;28;20406;-62
2023/05/28 00:22:19;;;;;;;7.75;7.05;;;21.30;99.90;;;;;;5094459;28;20024;-62
2023/05/28 00:24:45;;;;;;;8.02;7.18;;;21.30;99.90;;;;;;5094902;28;20035;-62
2023/05/28 00:27:11;;;;;;;7.95;7.25;;;21.30;99.90;;;;;;5094018;28;20730;-63
2023/05/28 00:29:36;;;;;;;9.13;7.35;;;21.30;99.90;;;;;;5094561;28;20109;-62
2023/05/28 00:32:02;;;;;;;8.63;7.00;;;21.20;99.90;;;;;;5094134;28;20024;-62
2023/05/28 00:34:28;;;;;;;8.48;6.88;;;21.20;99.90;;;;;;5093798;28;20043;-62
2023/05/28 00:36:54;;;;;;;10.00;7.30;;;21.20;99.90;;;;;;5094183;28;20048;-62
2023/05/28 00:39:20;;;;;;;8.63;7.03;;;21.20;99.90;;;;;;5094129;28;20024;-62
2023/05/28 00:41:46;;;;;;;11.07;7.97;;;21.10;99.90;;;;;;5094051;28;20512;-63
2023/05/28 00:44:12;;;;;;;7.70;6.90;;;21.10;99.90;;;;;;5094019;28;20054;-62
2023/05/28 00:46:44;;;;;;;8.82;7.07;;;21.00;99.90;;;;;;5094014;28;20109;-62
2023/05/28 00:49:11;;;;;;;8.60;7.70;;;21.10;99.90;;;;;;5093875;28;20022;-62
2023/05/28 00:51:38;;;;;;;8.90;7.18;;;21.10;99.90;;;;;;5094228;28;20035;-62
2023/05/28 00:54:04;;;;;;;8.32;7.50;;;21.00;99.90;;;;;;5093810;28;20482;-62
2023/05/28 00:56:31;;;;;;;10.48;7.80;;;21.00;99.90;;;;;;5093694;28;20486;-62
2023/05/28 00:58:59;;;;;;;9.10;7.50;;;21.00;99.90;;;;;;5093787;28;20028;-62
2023/05/28 01:01:26;;;;;;;8.70;7.10;;;20.90;99.90;;;;;;5093795;28;20032;-62
2023/05/28 01:03:52;;;;;;;8.77;7.57;;;20.90;99.90;;;;;;5093836;28;20035;-62
2023/05/28 01:06:20;;;;;;;8.65;7.75;;;20.90;99.90;;;;;;5093704;28;20103;-62
2023/05/28 01:08:47;;;;;;;8.05;7.20;;;20.80;99.90;;;;;;5093687;28;20079;-62
2023/05/28 01:11:18;;;;;;;9.10;7.60;;;20.80;99.90;;;;;;5093492;28;20027;-62
2023/05/28 01:13:45;;;;;;;9.25;7.10;;;20.80;99.90;;;;;;5093396;28;20028;-62
2023/05/28 01:16:11;;;;;;;9.73;7.65;;;20.80;99.90;;;;;;5093187;28;20394;-62
2023/05/28 01:18:39;;;;;;;9.23;7.30;;;20.80;99.90;;;;;;5093918;28;20040;-62
2023/05/28 01:21:06;;;;;;;9.63;7.72;;;20.70;99.90;;;;;;5093280;28;20051;-62
2023/05/28 01:23:46;;;;;;;8.68;7.10;;;20.70;99.90;;;;;;5093450;28;20036;-62
2023/05/28 01:26:14;;;;;;;8.15;7.35;;;20.70;99.90;;;;;;5093185;28;20110;-62
2023/05/28 01:28:44;;;;;;;8.30;7.40;;;20.60;99.90;;;;;;5092778;28;20035;-62
2023/05/28 01:31:13;;;;;;;8.98;7.40;;;20.60;99.90;;;;;;5092125;28;20498;-62
2023/05/28 01:33:43;;;;;;;9.38;7.95;;;20.60;99.90;;;;;;5093303;28;20024;-62
2023/05/28 01:36:21;;;;;;;8.50;7.60;;;20.60;99.90;;;;;;5093142;28;20402;-62
2023/05/28 01:38:49;;;;;;;8.27;7.43;;;20.50;99.90;;;;;;5093123;28;20073;-62
2023/05/28 01:41:15;;;;;;;8.23;7.35;;;20.40;99.90;;;;;;5092942;28;20394;-62
2023/05/28 01:43:43;;;;;;;9.15;7.60;;;20.40;99.90;;;;;;5092816;28;20048;-62
2023/05/28 01:46:09;;;;;;;8.90;7.20;;;20.40;99.90;;;;;;5092474;28;20032;-62
2023/05/28 01:48:36;;;;;;;8.55;7.65;;;20.30;99.90;;;;;;5093267;28;20028;-62
2023/05/28 01:51:02;;;;;;;8.45;7.40;;;20.30;99.90;;;;;;5092635;28;20031;-62
2023/05/28 01:53:28;;;;;;;9.00;7.30;;;20.30;99.90;;;;;;5092658;28;20012;-62
2023/05/28 01:55:55;;;;;;;9.32;7.68;;;20.30;99.90;;;;;;5091282;28;20040;-62
2023/05/28 01:58:22;;;;;;;8.15;7.35;;;20.30;99.90;;;;;;5092461;28;20379;-62
2023/05/28 02:01:14;;;;;;;9.70;7.72;;;20.30;99.90;;;;;;5092209;28;20483;-62
2023/05/28 02:03:40;;;;;;;8.68;7.55;;;20.20;99.90;;;;;;5092568;28;20020;-62
2023/05/28 02:06:06;;;;;;;8.70;7.95;;;20.20;99.90;;;;;;5092421;28;20051;-62
2023/05/28 02:08:31;;;;;;;8.75;7.85;;;20.20;99.90;;;;;;5092389;28;20105;-62
2023/05/28 02:10:57;;;;;;;9.45;7.90;;;20.10;99.90;;;;;;5092264;28;20028;-62
2023/05/28 02:13:23;;;;;;;8.88;7.55;;;20.00;99.90;;;;;;5092257;28;20086;-62
2023/05/28 02:15:48;;;;;;;9.65;7.90;;;20.10;99.90;;;;;;5092234;28;20391;-62
2023/05/28 02:18:14;;;;;;;8.43;7.65;;;20.10;99.90;;;;;;5092169;28;20028;-62
2023/05/28 02:20:42;;;;;;;8.63;7.55;;;20.00;99.90;;;;;;5090966;28;20115;-62
2023/05/28 02:23:08;;;;;;;8.90;8.00;;;19.90;99.90;;;;;;5092157;28;20024;-62
2023/05/28 02:25:33;;;;;;;9.23;7.82;;;20.00;99.90;;;;;;5091995;28;20103;-62
2023/05/28 02:27:59;;;;;;;10.05;8.27;;;19.90;99.90;;;;;;5092039;28;20046;-62
2023/05/28 02:30:25;;;;;;;9.40;8.32;;;19.90;99.90;;;;;;5090264;28;20035;-63
2023/05/28 02:32:51;;;;;;;8.15;7.35;;;19.80;99.90;;;;;;5092265;28;20016;-62
2023/05/28 02:35:19;;;;;;;8.50;7.35;;;19.80;99.90;;;;;;5091747;28;20127;-62
2023/05/28 02:37:45;;;;;;;8.75;7.80;;;19.80;99.90;;;;;;5090970;28;20028;-62
2023/05/28 02:40:11;;;;;;;9.05;7.70;;;19.70;99.90;;;;;;5091675;28;20368;-62
2023/05/28 02:42:37;;;;;;;9.70;7.45;;;19.70;99.90;;;;;;5091647;28;20454;-62
2023/05/28 02:45:04;;;;;;;8.77;7.85;;;19.70;99.90;;;;;;5091471;28;20039;-62
2023/05/28 02:47:29;;;;;;;9.43;7.53;;;19.60;99.90;;;;;;5092135;28;20097;-62
2023/05/28 02:49:55;;;;;;;8.30;7.50;;;19.60;99.90;;;;;;5091666;28;20075;-62
2023/05/28 02:52:21;;;;;;;9.02;8.13;;;19.50;99.90;;;;;;5091649;28;20541;-62
2023/05/28 02:54:46;;;;;;;8.57;7.78;;;19.50;99.90;;;;;;5091645;28;20464;-62
2023/05/28 02:57:12;;;;;;;10.68;7.68;;;19.40;99.90;;;;;;5091553;28;20502;-63
2023/05/28 02:59:38;;;;;;;11.38;8.10;;;19.30;99.90;;;;;;5091664;28;20379;-63
2023/05/28 03:02:04;;;;;;;8.65;7.70;;;19.30;99.90;;;;;;5091514;28;20032;-62
2023/05/28 03:04:29;;;;;;;8.90;8.00;;;19.30;99.90;;;;;;5091529;28;20034;-62
2023/05/28 03:06:55;;;;;;;8.00;7.25;;;19.40;99.90;;;;;;5091525;28;20054;-62
2023/05/28 03:09:21;;;;;;;8.98;7.50;;;19.40;99.90;;;;;;5091781;28;20403;-62
2023/05/28 03:11:46;;;;;;;8.35;7.22;;;19.50;99.90;;;;;;5091308;28;20051;-62
2023/05/28 03:14:13;;;;;;;10.73;7.78;;;19.50;99.90;;;;;;5091007;28;20028;-62
2023/05/28 03:16:38;;;;;;;9.13;7.57;;;19.50;99.90;;;;;;5091396;28;20032;-63
2023/05/28 03:19:04;;;;;;;9.05;7.97;;;19.50;99.90;;;;;;5091745;28;20101;-62
2023/05/28 03:21:30;;;;;;;9.00;7.22;;;19.50;99.90;;;;;;5091148;28;20104;-62
2023/05/28 03:23:55;;;;;;;8.90;8.00;;;19.50;99.90;;;;;;5091418;28;20479;-62
2023/05/28 03:26:21;;;;;;;11.20;7.20;;;19.50;99.90;;;;;;5091487;28;20502;-62
2023/05/28 03:28:47;;;;;;;9.00;8.05;;;19.50;99.90;;;;;;5090916;28;20058;-62
2023/05/28 03:31:13;;;;;;;9.02;7.20;;;19.50;99.90;;;;;;5091439;28;20032;-62
2023/05/28 03:33:38;;;;;;;9.68;8.00;;;19.40;99.90;;;;;;5091023;28;20024;-62
2023/05/28 03:36:06;;;;;;;9.38;7.78;;;19.40;99.90;;;;;;5091139;28;20044;-62
2023/05/28 03:38:32;;;;;;;9.10;7.85;;;19.40;99.90;;;;;;5091060;28;20025;-62
2023/05/28 03:40:58;;;;;;;10.38;8.27;;;19.30;99.90;;;;;;5091063;28;20032;-62
2023/05/28 03:43:24;;;;;;;9.48;8.55;;;19.30;99.90;;;;;;5091130;28;20107;-62
2023/05/28 03:45:50;;;;;;;9.85;8.15;;;19.30;99.90;;;;;;5091085;28;20164;-62
2023/05/28 03:48:16;;;;;;;9.43;7.55;;;19.30;99.90;;;;;;5091016;28;20383;-62
2023/05/28 03:50:41;;;;;;;10.07;7.97;;;19.20;99.90;;;;;;5091096;28;20361;-62
2023/05/28 03:53:07;;;;;;;9.00;8.07;;;19.20;99.90;;;;;;5092384;28;20097;-62
2023/05/28 03:55:33;;;;;;;8.90;8.00;;;19.20;99.90;;;;;;5095403;28;20039;-62
2023/05/28 03:57:59;;;;;;;11.02;8.02;;;19.20;99.90;;;;;;5094843;28;20028;-62
2023/05/28 04:00:25;;;;;;;10.18;8.20;;;19.20;99.90;;;;;;5094831;28;20035;-62
2023/05/28 04:02:50;;;;;;;8.90;8.00;;;19.20;99.90;;;;;;5094789;28;20428;-62
2023/05/28 04:05:16;;;;;;;11.05;8.43;;;19.10;99.90;;;;;;5095271;28;20050;-62
2023/05/28 04:07:42;;;;;;;10.30;8.38;;;19.10;99.90;;;;;;5094530;28;20034;-62
2023/05/28 04:10:08;;;;;;;10.35;8.60;;;19.10;99.90;;;;;;5094325;28;20024;-62
2023/05/28 04:12:33;;;;;;;9.48;8.40;;;19.10;99.90;;;;;;5094959;28;20028;-62
2023/05/28 04:15:00;;;;;;;9.20;8.07;;;19.10;99.90;;;;;;5094516;28;20106;-62
2023/05/28 04:17:27;;;;;;;8.93;8.02;;;19.00;99.90;;;;;;5094500;28;20028;-62
2023/05/28 04:19:55;;;;;;;11.57;8.60;;;19.00;99.90;;;;;;5094576;28;20028;-62
2023/05/28 04:22:23;;;;;;;10.52;8.55;;;19.00;99.90;;;;;;5094261;28;20024;-62
2023/05/28 04:24:51;;;;;;;11.80;8.25;;;19.00;99.90;;;;;;5094078;28;20072;-62
2023/05/28 04:27:17;;;;;;;10.93;8.10;;;19.00;99.90;;;;;;5094546;28;20036;-62
2023/05/28 04:29:44;;;;;;;10.27;8.30;;;19.00;99.90;;;;;;5094252;28;20443;-62
2023/05/28 04:32:10;;;;;;;9.18;8.20;;;18.90;99.90;;;;;;5094128;28;20027;-62
2023/05/28 04:34:36;;;;;;;9.40;8.45;;;18.90;99.90;;;;;;5094545;28;20035;-62
2023/05/28 04:37:04;;;;;;;9.38;8.35;;;18.80;99.90;;;;;;5093966;28;20059;-62
2023/05/28 04:39:30;;;;;;;9.45;8.45;;;18.80;99.90;;;;;;5093939;28;20032;-62
2023/05/28 04:41:55;;;;;;;9.48;8.13;;;18.80;99.90;;;;;;5093999;28;20118;-62
2023/05/28 04:44:25;;;;;;;9.02;7.70;;;18.80;99.90;;;;;;5094441;28;20032;-62
2023/05/28 04:46:51;;;;;;;9.77;8.77;;;18.70;99.90;;;;;;5093991;28;20024;-62
2023/05/28 04:49:17;;;;;;;9.27;8.18;;;18.70;99.90;;;;;;5093969;28;20032;-63
2023/05/28 04:51:43;;;;;;;12.18;8.55;;;18.70;99.90;;;;;;5093888;28;20142;-62
2023/05/28 04:54:09;;;;;;;9.13;8.20;;;18.70;99.90;;;;;;5094007;28;20028;-62
2023/05/28 04:56:38;;;;;;;8.88;8.05;;;18.70;99.90;;;;;;5093715;28;20024;-62
2023/05/28 04:59:05;;;;;;;9.35;8.38;;;18.60;99.90;;;;;;5093838;28;20016;-62
2023/05/28 05:01:33;;;;;;;12.95;8.57;;;18.70;99.90;;;;;;5093907;28;20039;-62
2023/05/28 05:03:59;;;;;;;11.40;8.80;;;18.80;99.90;;;;;;5093698;28;20027;-61
2023/05/28 05:06:25;;;;;;;10.68;8.25;;;18.80;99.90;;;;;;5094059;28;20031;-62
2023/05/28 05:08:50;;;;;;;12.27;8.23;;;18.80;99.90;;;;;;5093189;28;20032;-62
2023/05/28 05:11:16;;;;;;;9.82;8.52;;;18.80;99.90;;;;;;5093481;28;20032;-62
2023/05/28 05:13:42;;;;;;;12.32;9.20;;;18.80;99.90;;;;;;5093405;28;20032;-61
2023/05/28 05:16:08;;;;;;;9.48;8.57;;;18.80;99.90;;;;;;5093548;28;20030;-62
2023/05/28 05:18:34;;;;;;;10.23;8.70;;;18.80;99.90;;;;;;5093680;28;20020;-62
2023/05/28 05:21:00;;;;;;;11.32;9.13;;;18.80;99.90;;;;;;5093511;28;20106;-63
2023/05/28 05:23:26;;;;;;;10.43;8.52;;;18.90;99.90;;;;;;5092956;28;20070;-62
2023/05/28 05:25:52;;;;;;;11.35;8.40;;;18.80;99.90;;;;;;5093328;28;20024;-62
2023/05/28 05:28:17;;;;;;;11.38;8.70;;;18.80;99.90;;;;;;5093122;28;20111;-62
2023/05/28 05:30:43;;;;;;;9.13;8.32;;;18.90;99.90;;;;;;5093036;28;20023;-62
2023/05/28 05:33:09;;;;;;;9.30;8.40;;;18.80;99.90;;;;;;5092876;28;20032;-62
2023/05/28 05:35:35;;;;;;;10.35;8.63;;;18.90;99.90;;;;;;5092734;28;20047;-62
2023/05/28 05:38:00;;;;;;;9.82;8.80;;;18.90;99.90;;;;;;5092721;28;20039;-62
2023/05/28 05:40:27;;;;;;;10.77;8.68;;;18.90;99.90;;;;;;5092917;28;20115;-62
2023/05/28 05:42:53;;;;;;;8.68;7.80;;;18.90;99.90;;;;;;5092849;28;20024;-62
2023/05/28 05:45:19;;;;;;;10.55;8.10;;;18.90;99.90;;;;;;5093272;28;20032;-62
2023/05/28 05:47:45;;;;;;;10.57;8.60;;;19.00;99.90;;;;;;5092986;28;20020;-62
2023/05/28 05:50:13;;;;;;;9.32;8.30;;;19.00;99.90;;;;;;5092659;28;20488;-62
2023/05/28 05:52:40;;;;;;;9.38;8.48;;;19.00;99.90;;;;;;5092607;28;20073;-62
2023/05/28 05:55:07;;;;;;;12.00;8.52;;;19.00;99.90;;;;;;5092887;28;20395;-62
2023/05/28 05:57:33;;;;;;;11.27;8.88;;;19.00;99.90;;;;;;5092553;28;20024;-62
2023/05/28 05:59:59;;;;;;;9.98;8.25;;;19.00;99.90;;;;;;5092746;28;20020;-63
2023/05/28 06:02:25;;;;;;;12.25;9.18;;;19.00;99.90;;;;;;5092709;28;20066;-63
2023/05/28 06:04:51;;;;;;;11.20;8.75;;;19.00;99.90;;;;;;5092259;28;20027;-62
2023/05/28 06:07:17;;;;;;;10.27;8.50;;;19.00;99.90;;;;;;5092627;28;20012;-62
2023/05/28 06:09:43;;;;;;;10.43;8.80;;;19.00;99.90;;;;;;5092454;28;20077;-61
2023/05/28 06:12:09;;;;;;;10.23;8.52;;;19.00;99.90;;;;;;5092330;28;20020;-62
2023/05/28 06:14:35;;;;;;;11.30;8.85;;;19.10;99.90;;;;;;5092297;28;20452;-62
2023/05/28 06:17:01;;;;;;;9.80;8.80;;;19.10;99.90;;;;;;5091610;28;20028;-62
2023/05/28 06:19:27;;;;;;;10.18;8.90;;;19.20;99.90;;;;;;5092614;28;20039;-62
2023/05/28 06:21:53;;;;;;;13.00;9.57;;;19.20;99.90;;;;;;5091622;28;20107;-62
2023/05/28 06:24:19;;;;;;;11.73;9.00;;;19.20;99.90;;;;;;5091854;28;20478;-62
2023/05/28 06:26:45;;;;;;;10.88;8.55;;;19.20;99.90;;;;;;5092570;28;20020;-62
2023/05/28 06:29:10;;;;;;;9.77;8.13;;;19.30;99.90;;;;;;5092179;28;20020;-62
2023/05/28 06:31:36;;;;;;;11.55;8.90;;;19.30;99.90;;;;;;5091844;28;20032;-62
2023/05/28 06:34:02;;;;;;;11.38;8.70;;;19.40;99.90;;;;;;5092301;28;20406;-62
2023/05/28 06:36:28;;;;;;;10.52;8.73;;;19.40;99.90;;;;;;5091489;28;20455;-62
2023/05/28 06:38:54;;;;;;;11.27;8.77;;;19.40;99.90;;;;;;5092022;28;20024;-62
2023/05/28 06:41:21;;;;;;;12.40;8.75;;;19.50;99.90;;;;;;5091912;28;20036;-62
2023/05/28 06:43:47;;;;;;;9.50;7.45;;;19.50;99.90;;;;;;5092260;28;20035;-61
2023/05/28 06:46:13;;;;;;;9.10;8.20;;;19.50;99.90;;;;;;5091909;28;20035;-62
2023/05/28 06:48:39;;;;;;;10.07;8.10;;;19.50;99.90;;;;;;5091784;28;20028;-62
2023/05/28 06:51:05;;;;;;;10.90;8.07;;;19.60;99.90;;;;;;5091369;28;20028;-62
2023/05/28 06:53:31;;;;;;;10.32;7.93;;;19.70;99.90;;;;;;5091753;28;20438;-62
2023/05/28 06:55:57;;;;;;;8.77;7.97;;;19.70;99.90;;;;;;5091669;28;20044;-62
2023/05/28 06:58:23;;;;;;;9.80;7.80;;;19.70;99.90;;;;;;5092044;28;20085;-62
2023/05/28 07:00:49;;;;;;;10.18;7.55;;;19.80;99.90;;;;;;5091606;28;20028;-62
2023/05/28 07:03:15;;;;;;;8.70;7.78;;;19.80;99.90;;;;;;5091510;28;20024;-62
2023/05/28 07:05:40;;;;;;;8.75;7.80;;;19.90;99.90;;;;;;5091482;28;20452;-62
2023/05/28 07:08:06;;;;;;;9.85;7.82;;;19.90;99.90;;;;;;5091547;28;20028;-62
2023/05/28 07:10:32;;;;;;;10.70;8.73;;;20.00;99.90;;;;;;5091419;28;20038;-62
2023/05/28 07:12:58;;;;;;;10.13;8.10;;;20.00;99.90;;;;;;5091303;28;20028;-62
2023/05/28 07:15:23;;;;;;;9.45;7.60;;;20.10;99.90;;;;;;5091290;28;20044;-62
2023/05/28 07:17:49;;;;;;;10.13;8.15;;;20.10;99.90;;;;;;5091200;28;20019;-62
2023/05/28 07:20:16;;;;;;;10.70;7.70;;;20.20;99.90;;;;;;5091374;28;20494;-62
2023/05/28 07:22:41;;;;;;;9.57;7.55;;;20.30;99.90;;;;;;5091361;28;20016;-62
2023/05/28 07:25:08;;;;;;;8.75;7.40;;;20.30;99.90;;;;;;5091320;28;20085;-62
2023/05/28 07:27:33;;;;;;;11.60;7.85;;;20.30;99.90;;;;;;5093625;28;20020;-62
2023/05/28 07:29:59;;;;;;;8.55;7.63;;;20.40;99.90;;;;;;5095782;28;20023;-62
2023/05/28 07:32:25;;;;;;;12.30;7.28;;;20.40;99.90;;;;;;5095287;28;20028;-62
2023/05/28 07:34:51;;;;;;;9.75;7.75;;;20.50;99.90;;;;;;5095094;28;20067;-62
2023/05/28 07:37:16;;;;;;;9.52;7.72;;;20.60;99.90;;;;;;5095307;28;20037;-62
2023/05/28 07:39:42;;;;;;;11.20;7.72;;;20.60;99.90;;;;;;5095233;28;20074;-62
2023/05/28 07:42:08;;;;;;;9.32;7.85;;;20.60;99.90;;;;;;5095708;28;20095;-62
2023/05/28 07:44:34;;;;;;;10.48;7.68;;;20.70;99.90;;;;;;5095225;28;20043;-62
2023/05/28 07:46:59;;;;;;;9.30;7.50;;;20.70;99.90;;;;;;5095222;28;20035;-62
2023/05/28 07:49:25;;;;;;;8.52;7.10;;;20.80;99.90;;;;;;5094845;28;20490;-62
2023/05/28 07:51:51;;;;;;;11.65;7.57;;;20.90;99.90;;;;;;5095146;28;20032;-62
2023/05/28 07:54:17;;;;;;;9.52;7.55;;;20.90;99.90;;;;;;5095245;28;20387;-62
2023/05/28 07:56:42;;;;;;;8.43;7.60;;;20.90;99.90;;;;;;5095173;28;20034;-62
2023/05/28 07:59:08;;;;;;;11.13;7.45;;;21.10;99.90;;;;;;5094645;28;20062;-61
2023/05/28 08:01:34;;;;;;;9.35;7.90;;;21.10;99.90;;;;;;5095046;28;20070;-62
2023/05/28 08:04:00;;;;;;;9.93;7.70;;;21.10;99.90;;;;;;5094699;28;20020;-62
2023/05/28 08:06:27;;;;;;;9.88;7.78;;;21.10;99.90;;;;;;5094832;28;20020;-62
2023/05/28 08:08:55;;;;;;;8.40;7.60;;;21.30;99.90;;;;;;5094800;28;20035;-62
2023/05/28 08:11:21;;;;;;;12.43;7.63;;;21.40;99.90;;;;;;5093402;28;20482;-62
2023/05/28 08:13:47;;;;;;;11.40;7.72;;;21.40;99.90;;;;;;5094712;28;20089;-62
2023/05/28 08:16:12;;;;;;;9.20;7.70;;;21.40;99.90;;;;;;5094681;28;20089;-62
2023/05/28 08:18:41;;;;;;;10.32;7.50;;;21.50;99.90;;;;;;5094435;28;20024;-62
2023/05/28 08:21:07;;;;;;;10.50;7.07;;;21.60;99.90;;;;;;5094493;28;20054;-62
2023/05/28 08:23:34;;;;;;;12.82;8.02;;;21.50;99.90;;;;;;5094633;28;20466;-62
2023/05/28 08:26:03;;;;;;;10.57;7.25;;;21.60;99.90;;;;;;5094676;28;20048;-62
2023/05/28 08:28:29;;;;;;;12.15;7.72;;;21.70;99.90;;;;;;5094351;28;20098;-62
2023/05/28 08:30:55;;;;;;;8.18;7.30;;;21.80;99.90;;;;;;5094178;28;20402;-62
2023/05/28 08:33:22;;;;;;;12.05;7.80;;;22.00;99.90;;;;;;5093955;28;20085;-62
2023/05/28 08:35:48;;;;;;;20.20;9.55;;;22.00;99.90;;;;;;5094081;28;20048;-62
2023/05/28 08:38:13;;;;;;;19.20;8.52;;;22.10;99.90;;;;;;5093887;28;20032;-62
2023/05/28 08:40:41;;;;;;;9.38;7.80;;;22.10;99.90;;;;;;5094219;28;20032;-62
2023/05/28 08:43:07;;;;;;;10.32;7.85;;;22.10;99.90;;;;;;5094049;28;20403;-62
2023/05/28 08:45:35;;;;;;;8.48;6.90;;;22.20;99.90;;;;;;5094004;28;20070;-62
2023/05/28 08:48:00;;;;;;;11.55;7.32;;;22.30;99.90;;;;;;5094079;28;20480;-62
2023/05/28 08:50:27;;;;;;;9.23;7.50;;;22.40;99.90;;;;;;5093835;28;20146;-62
2023/05/28 08:52:54;;;;;;;11.00;7.28;;;22.50;99.90;;;;;;5093832;28;20043;-62
2023/05/28 08:55:20;;;;;;;13.15;7.75;;;22.60;99.90;;;;;;5094198;28;20055;-63
2023/05/28 08:57:46;;;;;;;10.20;7.20;;;22.60;99.90;;;;;;5093791;28;20483;-62
2023/05/28 09:00:12;;;;;;;8.57;7.65;;;22.70;99.90;;;;;;5093388;28;20103;-63
2023/05/28 09:02:39;;;;;;;9.70;7.68;;;22.70;99.90;;;;;;5094168;28;20063;-62
2023/05/28 09:05:05;;;;;;;9.77;7.22;;;22.80;99.90;;;;;;5093661;28;20095;-62
2023/05/28 09:07:32;;;;;;;9.57;7.45;;;22.90;99.90;;;;;;5093451;28;20383;-62
2023/05/28 09:09:58;;;;;;;9.02;7.43;;;22.90;99.90;;;;;;5093880;28;20032;-62
2023/05/28 09:12:24;;;;;;;8.98;7.45;;;23.00;99.90;;;;;;5093524;28;20024;-62
2023/05/28 09:14:53;;;;;;;10.65;6.93;;;23.20;99.90;;;;;;5093197;28;20085;-62
2023/05/28 09:17:36;;;;;;;8.43;7.13;;;23.20;99.90;;;;;;5093901;28;20070;-62
2023/05/28 09:20:12;;;;;;;10.95;7.15;;;23.30;99.90;;;;;;5093731;28;20060;-62
2023/05/28 09:22:38;;;;;;;7.93;7.13;;;23.30;99.90;;;;;;5093366;28;20036;-63
2023/05/28 09:25:07;;;;;;;8.52;7.32;;;23.20;99.90;;;;;;5093270;28;20035;-62
2023/05/28 09:27:34;;;;;;;8.60;7.43;;;23.40;99.90;;;;;;5093478;28;20020;-62
2023/05/28 09:30:06;;;;;;;10.85;7.20;;;23.50;99.90;;;;;;5092726;28;20020;-62
2023/05/28 09:32:34;;;;;;;8.80;7.65;;;23.70;99.90;;;;;;5093324;28;20073;-62
2023/05/28 09:35:00;;;;;;;13.18;7.72;;;23.60;99.90;;;;;;5093075;28;20067;-63
2023/05/28 09:37:28;;;;;;;10.73;7.07;;;23.60;99.90;;;;;;5093240;28;20028;-62
2023/05/28 09:40:07;;;;;;;9.02;7.03;;;23.60;99.90;;;;;;5093111;28;20030;-62
2023/05/28 09:42:39;;;;;;;10.48;7.63;;;23.80;99.90;;;;;;5092886;28;20089;-62
2023/05/28 09:45:05;;;;;;;8.15;7.07;;;23.90;99.90;;;;;;5092648;28;20056;-62
2023/05/28 09:47:31;;;;;;;9.80;7.70;;;24.00;99.90;;;;;;5092774;28;20036;-63
2023/05/28 09:49:56;;;;;;;9.48;7.72;;;24.00;99.90;;;;;;5091998;28;20093;-62
2023/05/28 09:52:23;;;;;;;12.23;7.68;;;24.20;99.90;;;;;;5092892;28;20398;-62
2023/05/28 09:54:55;;;;;;;9.07;7.53;;;24.20;99.90;;;;;;5092809;28;20032;-62
2023/05/28 09:57:29;;;;;;;10.30;7.55;;;24.20;99.90;;;;;;5092666;28;20048;-62
2023/05/28 09:59:55;;;;;;;11.43;7.05;;;24.40;99.90;;;;;;5092218;28;20059;-63
2023/05/28 10:02:41;;;;;;;8.25;7.35;;;24.50;99.90;;;;;;5092456;28;20046;-63
2023/05/28 10:05:08;;;;;;;8.45;7.20;;;24.50;99.90;;;;;;5092620;28;20046;-62
2023/05/28 10:07:36;;;;;;;8.30;6.93;;;24.70;99.90;;;;;;5092735;28;20016;-62
2023/05/28 10:10:03;;;;;;;8.85;7.95;;;24.80;99.90;;;;;;5092163;28;20032;-62
2023/05/28 10:12:30;;;;;;;10.07;7.45;;;24.80;99.90;;;;;;5092999;28;20024;-63
2023/05/28 10:14:57;;;;;;;9.15;7.32;;;24.80;99.90;;;;;;5091771;28;20085;-62
2023/05/28 10:17:23;;;;;;;9.40;7.30;;;24.80;99.90;;;;;;5092307;28;20027;-62
2023/05/28 10:19:49;;;;;;;9.63;7.05;;;25.10;99.90;;;;;;5092566;28;20244;-62
2023/05/28 10:22:16;;;;;;;8.00;7.20;;;25.00;99.90;;;;;;5092087;28;20435;-62
2023/05/28 10:24:44;;;;;;;7.63;6.63;;;25.00;99.90;;;;;;5092233;28;20028;-62
2023/05/28 10:27:18;;;;;;;9.18;7.03;;;25.10;99.90;;;;;;5091765;28;20043;-62
2023/05/28 10:29:46;;;;;;;8.13;6.75;;;25.20;99.90;;;;;;5092143;28;20084;-62
2023/05/28 10:32:15;;;;;;;8.85;6.75;;;25.30;99.90;;;;;;5092015;28;20469;-62
2023/05/28 10:34:41;;;;;;;9.30;7.07;;;25.30;99.90;;;;;;5092079;28;20059;-62
2023/05/28 10:37:09;;;;;;;7.90;6.75;;;25.40;99.90;;;;;;5091899;28;20140;-62
2023/05/28 10:39:41;;;;;;;11.30;7.75;;;25.50;99.90;;;;;;5092096;28;20032;-63
2023/05/28 10:42:13;;;;;;;12.37;8.63;;;25.60;99.90;;;;;;5091583;28;20039;-62
2023/05/28 10:44:50;;;;;;;10.93;7.72;;;25.60;99.90;;;;;;5091988;28;20243;-63
2023/05/28 10:47:17;;;;;;;12.27;7.60;;;25.50;99.90;;;;;;5091833;28;20028;-62
2023/05/28 10:50:09;;;;;;;14.50;8.00;;;25.50;99.90;;;;;;5091740;28;20106;-62
2023/05/28 10:52:36;;;;;;;9.60;7.95;;;25.40;99.90;;;;;;5091747;28;20028;-62
2023/05/28 10:55:04;;;;;;;11.77;7.90;;;25.50;99.90;;;;;;5091733;28;20100;-63
2023/05/28 10:57:43;;;;;;;13.25;7.80;;;25.50;99.90;;;;;;5091475;28;20027;-62
2023/05/28 11:00:13;;;;;;;12.25;8.02;;;25.40;99.90;;;;;;5091580;28;20050;-62
2023/05/28 11:02:42;;;;;;;13.60;8.50;;;25.50;99.90;;;;;;5091535;28;20028;-62
2023/05/28 11:05:08;;;;;;;13.63;7.85;;;25.60;99.90;;;;;;5091508;28;20032;-62
2023/05/28 11:07:36;;;;;;;13.27;8.07;;;25.50;99.90;;;;;;5091496;28;20506;-61
2023/05/28 11:10:07;;;;;;;12.88;7.97;;;25.50;99.90;;;;;;5091685;28;20588;-62
2023/05/28 11:12:36;;;;;;;11.15;7.72;;;25.60;99.90;;;;;;5091058;28;20035;-61
2023/05/28 11:15:03;;;;;;;13.02;7.93;;;25.60;99.90;;;;;;5091294;28;20039;-62
2023/05/28 11:17:29;;;;;;;16.95;8.48;;;25.60;99.90;;;;;;5091385;28;20028;-63
2023/05/28 11:19:55;;;;;;;12.90;7.55;;;25.60;99.90;;;;;;5091383;28;20116;-63
2023/05/28 11:22:21;;;;;;;9.15;7.07;;;25.70;99.90;;;;;;5091574;28;20055;-62
2023/05/28 11:24:50;;;;;;;10.57;7.55;;;25.70;99.90;;;;;;5091215;28;20048;-63
2023/05/28 11:27:16;;;;;;;10.95;8.00;;;25.80;99.90;;;;;;5090978;28;20460;-62
2023/05/28 11:29:42;;;;;;;10.38;7.30;;;26.00;99.90;;;;;;5091269;28;20390;-62
2023/05/28 11:32:07;;;;;;;10.15;7.15;;;26.10;99.90;;;;;;5091586;28;20035;-62
2023/05/28 11:34:33;;;;;;;12.75;7.95;;;26.10;99.90;;;;;;5091431;28;20032;-62
2023/05/28 11:36:59;;;;;;;13.50;7.45;;;26.10;99.90;;;;;;5091023;28;20048;-62
2023/05/28 11:39:25;;;;;;;13.20;7.05;;;26.10;99.90;;;;;;5091092;28;20020;-62
2023/05/28 11:41:51;;;;;;;11.18;6.97;;;26.10;99.90;;;;;;5091255;28;20085;-62
2023/05/28 11:44:23;;;;;;;9.45;7.10;;;26.10;99.90;;;;;;5091192;28;20119;-62
2023/05/28 11:46:56;;;;;;;12.32;7.20;;;26.20;99.90;;;;;;5091057;28;20024;-64
2023/05/28 11:49:22;;;;;;;10.30;7.40;;;26.30;99.90;;;;;;5091337;28;20060;-61
2023/05/28 11:51:52;;;;;;;10.80;6.97;;;26.30;99.90;;;;;;5091029;28;20032;-61
2023/05/28 11:54:18;;;;;;;11.70;6.50;;;26.40;99.90;;;;;;5090565;28;20455;-62
2023/05/28 11:56:47;;;;;;;10.60;7.18;;;26.50;99.90;;;;;;5091187;28;20067;-61
2023/05/28 11:59:12;;;;;;;10.43;7.32;;;26.60;99.90;;;;;;5091260;28;20593;-61
2023/05/28 12:01:39;;;;;;;14.25;7.63;;;26.50;99.90;;;;;;5090804;28;20115;-61
2023/05/28 12:04:07;;;;;;;10.80;7.47;;;26.50;99.90;;;;;;5091343;28;20054;-61
2023/05/28 12:06:33;;;;;;;11.60;7.70;;;26.50;99.90;;;;;;5091288;28;20028;-61
2023/05/28 12:09:06;;;;;;;12.50;7.10;;;26.60;99.90;;;;;;5090599;28;20023;-61
2023/05/28 12:11:32;;;;;;;9.30;6.70;;;26.70;99.90;;;;;;5090757;28;20020;-61
2023/05/28 12:14:09;;;;;;;10.25;7.60;;;26.80;99.90;;;;;;5092022;28;20047;-61
2023/05/28 12:16:48;;;;;;;13.30;7.90;;;27.00;99.90;;;;;;5094584;28;20032;-61
2023/05/28 12:19:17;;;;;;;10.50;7.40;;;26.90;99.90;;;;;;5094345;28;20524;-61
2023/05/28 12:21:44;;;;;;;9.80;6.95;;;27.10;99.90;;;;;;5094295;28;20484;-61
2023/05/28 12:24:16;;;;;;;11.25;6.97;;;27.20;99.90;;;;;;5093986;28;20036;-61
2023/05/28 12:26:41;;;;;;;10.00;6.78;;;27.30;99.90;;;;;;5094361;28;20020;-62
2023/05/28 12:29:08;;;;;;;10.10;6.63;;;27.30;99.90;;;;;;5094352;28;20395;-61
2023/05/28 12:31:33;;;;;;;10.43;6.68;;;27.40;99.90;;;;;;5094411;28;20157;-61
2023/05/28 12:33:59;;;;;;;11.50;8.13;;;27.50;99.90;;;;;;5094069;28;20515;-61
2023/05/28 12:36:25;;;;;;;12.70;8.23;;;27.60;99.90;;;;;;5094054;28;20481;-61
2023/05/28 12:38:51;;;;;;;10.80;7.18;;;27.60;99.90;;;;;;5093747;28;20024;-62
2023/05/28 12:41:17;;;;;;;10.38;6.75;;;27.70;99.90;;;;;;5094407;28;20487;-61